createdAt,value
2023-10-23T00:23:16.081Z,8.25
2023-10-23T00:53:16.072Z,7.88
2023-10-23T01:23:16.096Z,7.63
2023-10-23T01:53:16.101Z,7.13
2023-10-23T02:23:19.102Z,7.13
2023-10-23T02:53:16.103Z,6.94
2023-10-23T03:23:16.104Z,6.81
2023-10-23T03:53:16.134Z,6.38
2023-10-23T04:23:16.152Z,6.06
2023-10-23T04:53:16.219Z,5.56
2023-10-23T05:23:16.174Z,5.13
2023-10-23T05:53:16.151Z,4.94
2023-10-23T06:23:16.145Z,4.63
2023-10-23T06:53:16.135Z,5.19
2023-10-23T07:23:16.154Z,5.94
2023-10-23T07:53:16.144Z,7
2023-10-23T08:23:16.148Z,7.94
2023-10-23T08:53:16.168Z,9.31
2023-10-23T09:23:16.144Z,10.63
2023-10-23T09:53:16.157Z,11.88
2023-10-23T10:23:16.171Z,13.81
2023-10-23T10:53:16.168Z,15.31
2023-10-23T11:23:16.175Z,15.94
2023-10-23T11:53:16.195Z,16.44
2023-10-23T12:23:16.183Z,17.06
2023-10-23T12:53:16.200Z,17.25
2023-10-23T13:23:16.197Z,16.31
2023-10-23T13:53:16.204Z,15.75
2023-10-23T14:23:16.210Z,15.19
2023-10-23T14:53:16.217Z,15.63
2023-10-23T15:53:16.242Z,14.19
2023-10-23T16:23:16.240Z,13.5
2023-10-23T16:53:16.244Z,12.56
2023-10-23T17:23:16.248Z,12.19
2023-10-23T17:53:16.257Z,11.88
2023-10-23T18:23:16.265Z,11.88
2023-10-23T18:53:16.263Z,11.75
2023-10-23T19:23:16.255Z,11.25
2023-10-23T19:53:16.398Z,11.5
2023-10-23T20:23:16.321Z,11.63
2023-10-23T20:53:16.300Z,11.5
2023-10-23T21:23:16.300Z,11.44
2023-10-23T21:53:16.324Z,11.13
2023-10-23T22:23:16.324Z,11.38
2023-10-23T22:53:16.341Z,11.5
2023-10-23T23:23:16.347Z,11.19
2023-10-23T23:53:16.317Z,11.19
